Adairsville, Georgia
Current Conditions -  °F | °C
As of 12:53 AM on Wednesday 22 Oct 2014 (Local Time) from KRMG Reporting Station
Clear Clear  
Wind Chill: 55°   Ceiling: Unl
Heat Index: 55°   Visibility: 10mi
Dew Point: 46°   Wind: 8mph
Humidity: 72%   Direction: 350°N
Pressure: 30.06"   Gusts: NA
Location:  34.37°N, 84.93°W
Report Text: KRMG 220453Z AUTO 35007KT 10SM CLR 13/08 A3006 RMK AO2 SLP173 T01280078 402440067
Loading
Personal Weather Stations






























Interactive Weather Map
Tropical Storm Tracking
New forecast layout! Learn more

10-Day Weather Forecast

Advertisements
Track Severe Weather on mobile